Time;durP1;ratioP1;P1;durP2;ratioP2;P2;SDS_P1;SDS_P2;PMS_P1;PMS_P2;Temp;Humidity;BMP_temperature;BMP_pressure;BME280_temperature;BME280_humidity;BME280_pressure;Samples;Min_cycle;Max_cycle;Signal;HPM_P1;HPM_P2
2023/04/30 00:00:38;;;;;;;15.05;10.38;;;13.20;99.90;;;;;;5008329;28;20053;-70
2023/04/30 00:03:08;;;;;;;20.80;10.77;;;13.20;99.90;;;;;;5014990;28;20065;-77
2023/04/30 00:05:37;;;;;;;13.25;10.07;;;13.30;99.90;;;;;;5004462;28;20077;-76
2023/04/30 00:08:06;;;;;;;;;;;13.30;99.90;;;;;;5032091;28;20058;-76
2023/04/30 00:10:34;;;;;;;15.43;10.48;;;13.30;99.90;;;;;;5038414;28;19975;-77
2023/04/30 00:13:01;;;;;;;17.27;11.00;;;13.30;99.90;;;;;;5009594;28;20077;-74
2023/04/30 00:15:30;;;;;;;18.98;12.27;;;13.20;99.90;;;;;;5023271;28;20048;-71
2023/04/30 00:17:57;;;;;;;15.75;10.70;;;13.20;99.90;;;;;;5015042;28;20414;-73
2023/04/30 00:20:26;;;;;;;12.55;8.95;;;13.00;99.90;;;;;;5034722;28;20129;-77
2023/04/30 00:22:56;;;;;;;15.43;10.02;;;12.60;99.90;;;;;;5021810;28;20044;-72
2023/04/30 00:25:24;;;;;;;13.55;10.02;;;12.60;99.90;;;;;;4991676;28;20050;-75
2023/04/30 00:27:51;;;;;;;12.75;8.73;;;12.70;99.90;;;;;;5019967;28;20410;-70
2023/04/30 00:30:20;;;;;;;16.33;10.88;;;12.40;99.90;;;;;;5010639;28;20058;-72
2023/04/30 00:32:48;;;;;;;14.68;9.63;;;12.30;99.90;;;;;;5019974;28;20046;-71
2023/04/30 00:35:15;;;;;;;14.68;10.32;;;12.30;99.90;;;;;;5016885;28;20045;-72
2023/04/30 00:37:42;;;;;;;14.65;9.50;;;12.40;99.90;;;;;;5018029;28;20124;-75
2023/04/30 00:40:10;;;;;;;12.63;8.75;;;12.40;99.90;;;;;;5033038;28;20056;-73
2023/04/30 00:42:40;;;;;;;13.85;8.55;;;12.60;99.90;;;;;;5025789;28;20061;-76
2023/04/30 00:45:08;;;;;;;14.45;8.95;;;12.80;99.90;;;;;;5031097;28;20045;-73
2023/04/30 00:47:35;;;;;;;12.20;9.07;;;12.90;99.90;;;;;;5036772;28;20046;-76
2023/04/30 00:50:09;;;;;;;12.52;9.25;;;12.90;99.90;;;;;;5020018;28;20045;-76
2023/04/30 00:52:45;;;;;;;14.82;9.27;;;13.00;99.90;;;;;;5014837;28;20042;-72
2023/04/30 00:55:14;;;;;;;17.50;8.63;;;12.90;99.90;;;;;;5013207;28;20402;-73
2023/04/30 00:57:43;;;;;;;12.07;9.05;;;12.80;99.90;;;;;;5001106;28;20118;-77
2023/04/30 01:00:12;;;;;;;16.45;8.38;;;12.80;99.90;;;;;;5025903;28;20140;-70
2023/04/30 01:02:44;;;;;;;10.90;7.47;;;12.70;99.90;;;;;;5004485;28;20133;-77
2023/04/30 01:05:12;;;;;;;14.15;8.27;;;12.50;99.90;;;;;;5024454;28;20128;-70
2023/04/30 01:07:45;;;;;;;14.30;7.85;;;12.50;99.90;;;;;;5009699;28;20136;-68
2023/04/30 01:10:14;;;;;;;12.48;8.55;;;12.60;99.90;;;;;;4999352;28;20057;-70
2023/04/30 01:13:39;;;;;;;13.57;8.20;;;12.60;99.90;;;;;;5028276;28;20052;-69
2023/04/30 01:16:26;;;;;;;11.30;7.65;;;12.60;99.90;;;;;;5020216;28;20498;-73
2023/04/30 01:19:04;;;;;;;10.10;7.13;;;12.60;99.90;;;;;;5030282;28;20475;-70
2023/04/30 01:21:40;;;;;;;10.40;7.20;;;12.60;99.90;;;;;;4987872;28;20053;-71
2023/04/30 01:24:10;;;;;;;9.38;7.28;;;12.60;99.90;;;;;;4999024;28;20057;-77
2023/04/30 01:27:23;;;;;;;12.15;7.47;;;12.50;99.90;;;;;;5024349;28;20407;-71
2023/04/30 01:29:57;;;;;;;12.70;7.65;;;12.60;99.90;;;;;;5010843;28;20061;-74
2023/04/30 01:32:26;;;;;;;11.98;6.95;;;12.50;99.90;;;;;;5011308;28;20398;-71
2023/04/30 01:35:03;;;;;;;11.38;7.50;;;12.50;99.90;;;;;;5017300;28;20049;-73
2023/04/30 01:38:10;;;;;;;9.45;6.63;;;12.50;99.90;;;;;;5021801;28;20065;-76
2023/04/30 01:41:09;;;;;;;11.13;7.32;;;12.10;99.90;;;;;;5041285;28;20060;-77
2023/04/30 01:43:54;;;;;;;8.75;6.63;;;11.80;99.90;;;;;;5009678;28;20045;-76
2023/04/30 01:46:31;;;;;;;11.07;7.07;;;12.00;99.90;;;;;;5043710;28;20041;-79
2023/04/30 01:49:49;;;;;;;16.52;7.28;;;12.20;99.90;;;;;;5035900;28;20057;-72
2023/04/30 01:52:56;;;;;;;9.98;6.90;;;12.30;99.90;;;;;;5028096;28;20488;-70
2023/04/30 01:55:48;;;;;;;15.88;9.80;;;12.20;99.90;;;;;;5006550;28;20156;-77
2023/04/30 01:58:22;;;;;;;18.63;12.05;;;12.20;99.90;;;;;;5028450;28;20406;-78
2023/04/30 02:00:51;;;;;;;15.90;11.77;;;12.10;99.90;;;;;;5004127;28;20049;-76
2023/04/30 02:03:18;;;;;;;18.58;12.00;;;12.00;99.90;;;;;;5003728;28;20069;-74
2023/04/30 02:05:47;;;;;;;17.23;13.35;;;11.90;99.90;;;;;;5031619;28;20054;-78
2023/04/30 02:08:14;;;;;;;18.02;13.25;;;12.00;99.90;;;;;;5018516;28;20072;-77
2023/04/30 02:10:41;;;;;;;19.70;11.85;;;11.90;99.90;;;;;;5024187;28;20049;-78
2023/04/30 02:13:08;;;;;;;17.90;12.70;;;11.90;99.90;;;;;;5026637;28;20057;-78
2023/04/30 02:15:36;;;;;;;14.35;11.35;;;11.90;99.90;;;;;;5024696;28;20496;-78
2023/04/30 02:18:03;;;;;;;18.77;12.63;;;11.90;99.90;;;;;;5022592;28;20053;-73
2023/04/30 02:20:30;;;;;;;19.50;11.68;;;11.90;99.90;;;;;;5020597;28;20060;-78
2023/04/30 02:23:00;;;;;;;19.40;13.57;;;11.80;99.90;;;;;;5019064;28;20077;-71
2023/04/30 02:25:27;;;;;;;21.27;11.43;;;11.80;99.90;;;;;;5001738;28;20137;-72
2023/04/30 02:27:58;;;;;;;16.10;11.60;;;11.90;99.90;;;;;;5011617;28;20057;-71
2023/04/30 02:30:30;;;;;;;17.73;11.30;;;12.00;99.90;;;;;;5009721;28;20491;-76
2023/04/30 02:32:58;;;;;;;15.30;11.00;;;12.00;99.90;;;;;;5002962;28;20046;-80
2023/04/30 02:35:26;;;;;;;13.75;10.70;;;12.00;99.90;;;;;;5002573;28;20077;-78
2023/04/30 02:37:53;;;;;;;15.18;10.52;;;11.90;99.90;;;;;;5017485;28;20053;-74
2023/04/30 02:40:20;;;;;;;14.95;11.40;;;11.80;99.90;;;;;;5018904;28;20050;-78
2023/04/30 02:42:47;;;;;;;17.25;12.93;;;11.80;99.90;;;;;;5032437;28;20125;-78
2023/04/30 02:45:15;;;;;;;13.57;11.27;;;11.90;99.90;;;;;;5022328;28;20050;-76
2023/04/30 02:47:42;;;;;;;14.10;10.35;;;11.80;99.90;;;;;;5020803;28;20041;-77
2023/04/30 02:50:47;;;;;;;16.50;9.95;;;11.70;99.90;;;;;;5031516;28;20056;-77
2023/04/30 02:53:14;;;;;;;13.70;8.95;;;11.80;99.90;;;;;;5032583;28;20057;-76
2023/04/30 02:55:41;;;;;;;13.35;9.73;;;11.90;99.90;;;;;;5034045;28;20076;-75
2023/04/30 02:58:08;;;;;;;13.57;9.35;;;12.00;99.90;;;;;;5020890;28;20050;-76
2023/04/30 03:00:35;;;;;;;17.25;10.77;;;12.10;99.90;;;;;;5033030;28;20053;-78
2023/04/30 03:03:05;;;;;;;16.13;11.23;;;12.10;99.90;;;;;;5020248;28;20096;-70
2023/04/30 03:05:33;;;;;;;14.95;10.63;;;11.90;99.90;;;;;;5003282;28;20107;-75
2023/04/30 03:08:00;;;;;;;16.30;11.07;;;11.80;99.90;;;;;;5032610;28;20133;-79
2023/04/30 03:10:27;;;;;;;18.02;11.77;;;11.60;99.90;;;;;;5034372;28;20045;-75
2023/04/30 03:12:57;;;;;;;15.32;11.77;;;11.50;99.90;;;;;;5028267;28;20105;-74
2023/04/30 03:15:25;;;;;;;15.93;11.68;;;11.40;99.90;;;;;;4997524;28;20438;-77
2023/04/30 03:17:52;;;;;;;16.85;11.23;;;11.30;99.90;;;;;;5009988;28;20072;-76
2023/04/30 03:20:19;;;;;;;14.75;11.50;;;11.30;99.90;;;;;;5027828;28;20459;-76
2023/04/30 03:22:46;;;;;;;16.20;10.75;;;11.20;99.90;;;;;;5025911;28;20046;-76
2023/04/30 03:25:14;;;;;;;14.93;10.95;;;11.10;99.90;;;;;;5027558;28;20388;-75
2023/04/30 03:27:41;;;;;;;15.02;10.23;;;11.10;99.90;;;;;;5018591;28;20053;-75
2023/04/30 03:30:09;;;;;;;16.60;10.50;;;11.20;99.90;;;;;;5029360;28;20140;-76
2023/04/30 03:32:36;;;;;;;13.75;10.35;;;11.20;99.90;;;;;;5038829;28;20398;-77
2023/04/30 03:35:04;;;;;;;11.82;9.27;;;11.20;99.90;;;;;;5021862;28;20117;-75
2023/04/30 03:37:31;;;;;;;17.52;9.90;;;11.20;99.90;;;;;;5024285;28;20057;-78
2023/04/30 03:39:58;;;;;;;11.80;9.32;;;11.20;99.90;;;;;;5033420;28;20045;-77
2023/04/30 03:42:26;;;;;;;13.25;9.38;;;11.20;99.90;;;;;;5036386;28;20073;-79
2023/04/30 03:44:53;;;;;;;12.85;9.80;;;11.20;99.90;;;;;;5030693;28;20054;-78
2023/04/30 03:47:20;;;;;;;12.18;9.57;;;11.30;99.90;;;;;;5021795;28;20046;-76
2023/04/30 03:49:53;;;;;;;12.43;10.13;;;11.30;99.90;;;;;;5021347;28;20109;-76
2023/04/30 03:52:21;;;;;;;13.35;8.98;;;11.30;99.90;;;;;;5013203;28;20050;-78
2023/04/30 03:54:49;;;;;;;11.95;9.25;;;11.30;99.90;;;;;;5003352;28;20128;-77
2023/04/30 03:57:16;;;;;;;13.00;9.45;;;11.50;99.90;;;;;;5003627;28;20471;-77
2023/04/30 03:59:43;;;;;;;14.35;9.50;;;11.60;99.90;;;;;;5019326;28;20562;-72
2023/04/30 04:02:11;;;;;;;11.23;9.13;;;11.50;99.90;;;;;;5019823;28;20122;-72
2023/04/30 04:04:38;;;;;;;13.15;10.25;;;11.50;99.90;;;;;;5028337;28;20454;-77
2023/04/30 04:07:08;;;;;;;11.88;8.88;;;11.60;99.90;;;;;;5037305;28;20037;-76
2023/04/30 04:09:35;;;;;;;13.18;8.70;;;11.70;99.90;;;;;;5022403;28;20078;-77
2023/04/30 04:12:03;;;;;;;10.93;9.15;;;11.70;99.90;;;;;;5021423;28;20080;-76
2023/04/30 04:14:30;;;;;;;16.27;9.45;;;11.70;99.90;;;;;;5030359;28;20060;-74
2023/04/30 04:17:01;;;;;;;14.15;9.20;;;11.60;99.90;;;;;;5001592;28;20045;-70
2023/04/30 04:19:29;;;;;;;14.15;9.25;;;11.70;99.90;;;;;;4997093;28;20049;-75
2023/04/30 04:21:56;;;;;;;14.10;9.23;;;11.80;99.90;;;;;;5018347;28;20100;-73
2023/04/30 04:24:24;;;;;;;11.23;8.85;;;11.80;99.90;;;;;;5032240;28;20418;-74
2023/04/30 04:26:52;;;;;;;14.18;9.52;;;11.90;99.90;;;;;;5019471;28;20064;-73
2023/04/30 04:29:19;;;;;;;11.55;8.52;;;11.90;99.90;;;;;;5014132;28;20652;-70
2023/04/30 04:31:48;;;;;;;11.45;8.85;;;12.10;99.90;;;;;;4991970;28;20042;-78
2023/04/30 04:34:15;;;;;;;14.07;10.02;;;12.10;99.90;;;;;;5024996;28;20058;-73
2023/04/30 04:36:45;;;;;;;13.57;9.15;;;12.10;99.90;;;;;;5031364;28;20058;-73
2023/04/30 04:39:18;;;;;;;13.10;9.43;;;12.20;99.90;;;;;;5004186;28;20117;-73
2023/04/30 04:41:46;;;;;;;13.75;9.80;;;12.30;99.90;;;;;;5001249;28;20140;-77
2023/04/30 04:44:13;;;;;;;14.55;10.13;;;12.30;99.90;;;;;;5005068;28;20608;-76
2023/04/30 04:46:45;;;;;;;11.73;9.13;;;12.30;99.90;;;;;;5027993;28;20053;-73
2023/04/30 04:49:13;;;;;;;15.35;9.55;;;12.40;99.90;;;;;;5004203;28;20141;-74
2023/04/30 04:51:40;;;;;;;12.77;9.68;;;12.50;99.90;;;;;;5026937;28;20048;-76
2023/04/30 04:54:08;;;;;;;16.90;10.05;;;12.60;99.90;;;;;;5026338;28;20052;-78
2023/04/30 04:56:36;;;;;;;12.45;9.57;;;12.60;99.90;;;;;;5009143;28;20057;-72
2023/04/30 04:59:04;;;;;;;12.25;9.82;;;12.60;99.90;;;;;;5016038;28;20103;-79
2023/04/30 05:01:31;;;;;;;16.90;10.35;;;12.70;99.90;;;;;;5019515;28;20391;-78
2023/04/30 05:03:58;;;;;;;13.77;10.23;;;12.80;99.90;;;;;;5023945;28;20089;-78
2023/04/30 05:06:28;;;;;;;12.65;9.90;;;12.80;99.90;;;;;;5010446;28;20076;-71
2023/04/30 05:08:57;;;;;;;18.90;10.20;;;12.90;99.90;;;;;;5014888;28;20128;-76
2023/04/30 05:11:24;;;;;;;14.32;10.07;;;12.90;99.90;;;;;;5021119;28;20538;-76
2023/04/30 05:13:52;;;;;;;14.93;9.88;;;13.00;99.90;;;;;;5035490;28;20038;-74
2023/04/30 05:16:19;;;;;;;12.98;9.82;;;13.00;99.90;;;;;;5005133;28;20399;-78
2023/04/30 05:18:47;;;;;;;14.75;9.50;;;12.90;99.90;;;;;;5003345;28;20143;-78
2023/04/30 05:21:15;;;;;;;13.68;10.32;;;12.90;99.90;;;;;;5022759;28;20145;-78
2023/04/30 05:23:43;;;;;;;13.82;10.50;;;13.00;99.90;;;;;;5026336;28;20052;-79
2023/04/30 05:26:11;;;;;;;13.27;9.68;;;13.00;99.90;;;;;;5036940;28;20065;-76
2023/04/30 05:28:38;;;;;;;13.15;9.77;;;13.00;99.90;;;;;;5020654;28;20046;-80
2023/04/30 05:31:07;;;;;;;12.43;9.35;;;13.10;99.90;;;;;;5036662;28;20045;-79
2023/04/30 05:33:39;;;;;;;13.75;9.73;;;13.00;99.90;;;;;;5030324;28;20502;-78
2023/04/30 05:36:07;;;;;;;13.25;9.55;;;13.00;99.90;;;;;;5008823;28;20053;-79
2023/04/30 05:38:34;;;;;;;14.13;9.55;;;13.20;99.90;;;;;;5041731;28;20405;-78
2023/04/30 05:41:01;;;;;;;13.40;8.88;;;13.20;99.90;;;;;;5032318;28;20045;-79
2023/04/30 05:43:28;;;;;;;12.98;9.60;;;13.30;99.90;;;;;;5016641;28;20049;-79
2023/04/30 05:46:04;;;;;;;16.67;9.63;;;13.40;99.90;;;;;;5017941;28;20042;-69
2023/04/30 05:48:33;;;;;;;13.30;8.93;;;13.30;99.90;;;;;;5002982;28;20061;-76
2023/04/30 05:51:01;;;;;;;13.20;8.27;;;13.40;99.90;;;;;;5041640;28;20421;-76
2023/04/30 05:53:36;;;;;;;13.90;9.07;;;13.50;99.90;;;;;;5009720;28;20073;-71
2023/04/30 05:56:13;;;;;;;11.73;8.27;;;13.50;99.90;;;;;;5017629;28;20065;-77
2023/04/30 05:58:41;;;;;;;14.85;9.25;;;13.60;99.90;;;;;;5032437;28;20050;-78
2023/04/30 06:01:11;;;;;;;12.98;8.52;;;13.50;99.90;;;;;;5017202;28;20376;-71
2023/04/30 06:03:42;;;;;;;13.93;8.82;;;13.50;99.90;;;;;;5002973;28;20049;-78
2023/04/30 06:06:09;;;;;;;14.30;8.98;;;13.50;99.90;;;;;;5042118;28;20064;-78
2023/04/30 06:08:37;;;;;;;11.90;8.50;;;13.40;99.90;;;;;;5021424;28;20126;-77
2023/04/30 06:11:12;;;;;;;10.48;8.27;;;13.40;99.90;;;;;;5019613;28;20068;-76
2023/04/30 06:13:39;;;;;;;12.90;8.20;;;12.90;99.90;;;;;;5026185;28;20046;-71
2023/04/30 06:16:10;;;;;;;;;;;13.10;99.90;;;;;;5013934;28;20068;-76
2023/04/30 06:18:39;;;;;;;12.35;8.07;;;13.30;99.90;;;;;;5015630;28;19922;-70
2023/04/30 06:21:07;;;;;;;10.90;7.43;;;13.40;99.90;;;;;;5001029;28;20058;-77
2023/04/30 06:23:34;;;;;;;14.02;7.95;;;13.50;99.90;;;;;;4990474;28;20517;-74
2023/04/30 06:26:07;;;;;;;10.77;8.05;;;13.60;99.90;;;;;;5018099;28;20396;-71
2023/04/30 06:28:47;;;;;;;11.95;8.35;;;13.60;99.90;;;;;;4999392;28;20058;-72
2023/04/30 06:31:15;;;;;;;12.15;8.18;;;13.70;99.90;;;;;;5024258;28;20506;-78
2023/04/30 06:33:49;;;;;;;12.75;8.65;;;13.80;99.90;;;;;;5017852;28;20045;-73
2023/04/30 06:36:18;;;;;;;10.18;8.10;;;14.00;99.90;;;;;;5014172;28;20479;-70
2023/04/30 06:38:56;;;;;;;14.50;8.63;;;14.00;99.90;;;;;;4999756;28;20093;-77
2023/04/30 06:41:26;;;;;;;12.77;8.90;;;14.00;99.90;;;;;;5025851;28;20049;-69
2023/04/30 06:43:56;;;;;;;72.95;49.17;;;14.00;99.90;;;;;;5009629;28;20042;-71
2023/04/30 06:46:24;;;;;;;69.00;47.22;;;14.20;99.90;;;;;;4996674;28;20252;-71
2023/04/30 06:48:52;;;;;;;17.42;14.10;;;14.30;99.90;;;;;;5003784;28;20054;-71
2023/04/30 06:51:19;;;;;;;12.82;9.85;;;14.30;99.90;;;;;;5019199;28;20052;-72
2023/04/30 06:53:47;;;;;;;11.75;8.63;;;14.40;99.90;;;;;;4997153;28;20116;-71
2023/04/30 06:56:15;;;;;;;12.10;8.65;;;14.40;99.90;;;;;;5038875;28;20058;-76
2023/04/30 06:58:52;;;;;;;18.10;9.77;;;14.50;99.90;;;;;;5027891;28;20057;-74
2023/04/30 07:01:24;;;;;;;13.85;9.20;;;14.50;99.90;;;;;;5026725;28;20054;-74
2023/04/30 07:03:53;;;;;;;17.27;9.45;;;14.50;99.90;;;;;;5034332;28;20076;-73
2023/04/30 07:06:44;;;;;;;12.85;9.30;;;14.50;99.90;;;;;;5037633;28;20056;-72
2023/04/30 07:09:17;;;;;;;11.02;8.40;;;14.70;99.90;;;;;;5006358;28;20116;-72
2023/04/30 07:11:53;;;;;;;13.73;9.23;;;14.80;99.90;;;;;;5011818;23;20061;-74
2023/04/30 07:14:33;;;;;;;17.30;9.23;;;14.80;99.90;;;;;;4978578;28;20109;-73
2023/04/30 07:17:01;;;;;;;11.60;9.07;;;14.90;99.90;;;;;;4974422;28;20054;-78
2023/04/30 07:19:29;;;;;;;11.93;8.75;;;15.00;99.90;;;;;;4979031;28;20118;-76
2023/04/30 07:21:58;;;;;;;15.55;8.65;;;15.10;99.90;;;;;;4990602;28;20052;-77
2023/04/30 07:24:34;;;;;;;13.63;8.85;;;15.20;99.90;;;;;;4991016;28;20046;-75
2023/04/30 07:27:07;;;;;;;14.75;9.05;;;15.30;99.90;;;;;;4988221;28;20054;-74
2023/04/30 07:29:36;;;;;;;13.45;8.82;;;15.40;99.90;;;;;;4970032;28;20027;-80
2023/04/30 07:32:07;;;;;;;21.25;15.75;;;15.40;99.90;;;;;;4990318;28;20046;-69
2023/04/30 07:34:43;;;;;;;17.52;13.02;;;15.60;99.90;;;;;;4971577;28;20501;-69
2023/04/30 07:37:31;;;;;;;64.80;36.60;;;15.90;99.90;;;;;;4965527;28;20051;-71
2023/04/30 07:40:04;;;;;;;27.10;20.65;;;16.00;99.90;;;;;;4989112;28;20511;-70
2023/04/30 07:42:32;;;;;;;65.00;45.53;;;16.10;99.90;;;;;;4955465;28;20399;-77
2023/04/30 07:45:03;;;;;;;13.43;10.25;;;16.30;99.90;;;;;;5009924;28;20102;-75
2023/04/30 07:47:33;;;;;;;13.15;8.80;;;16.10;99.90;;;;;;4993911;28;20039;-74
2023/04/30 07:50:03;;;;;;;15.70;9.95;;;16.10;99.90;;;;;;4966610;28;20050;-76
2023/04/30 07:52:54;;;;;;;16.15;9.50;;;16.00;99.90;;;;;;4968265;28;20137;-74
2023/04/30 07:55:32;;;;;;;14.52;9.70;;;16.10;99.90;;;;;;4963778;28;20050;-76
2023/04/30 07:58:39;;;;;;;12.13;9.02;;;16.00;99.90;;;;;;4998428;28;20054;-73
2023/04/30 08:01:22;;;;;;;11.85;9.10;;;15.90;99.90;;;;;;4980303;28;20058;-73
2023/04/30 08:03:50;;;;;;;10.90;8.27;;;15.80;99.90;;;;;;4966370;28;20113;-76
2023/04/30 08:06:18;;;;;;;15.43;8.43;;;15.80;99.90;;;;;;4984920;28;20050;-70
2023/04/30 08:08:51;;;;;;;12.80;7.43;;;15.90;99.90;;;;;;4981643;28;20085;-71
2023/04/30 08:11:19;;;;;;;11.80;7.53;;;15.80;99.90;;;;;;4967119;28;20069;-71
2023/04/30 08:13:55;;;;;;;37.20;24.25;;;15.90;99.90;;;;;;4994951;28;20050;-75
2023/04/30 08:16:27;;;;;;;19.02;13.98;;;15.90;99.90;;;;;;4974688;23;20035;-70
2023/04/30 08:18:55;;;;;;;23.30;16.17;;;16.00;99.90;;;;;;4992877;28;20069;-71
2023/04/30 08:21:23;;;;;;;118.55;72.65;;;16.10;99.90;;;;;;4976597;28;20070;-71
2023/04/30 08:23:52;;;;;;;18.52;15.13;;;16.30;99.90;;;;;;4994894;28;20058;-72
2023/04/30 08:26:22;;;;;;;;;;;16.30;99.90;;;;;;4971109;28;20062;-72
2023/04/30 08:28:54;;;;;;;14.25;10.27;;;16.40;99.90;;;;;;4985967;28;19922;-75
2023/04/30 08:31:21;;;;;;;11.90;8.80;;;16.50;99.90;;;;;;5005085;28;20125;-70
2023/04/30 08:33:50;;;;;;;13.75;8.90;;;16.80;99.90;;;;;;4988309;23;20129;-69
2023/04/30 08:36:23;;;;;;;16.88;10.57;;;16.80;99.90;;;;;;4951638;28;20054;-71
2023/04/30 08:39:00;;;;;;;14.90;8.70;;;16.80;99.90;;;;;;5009807;28;20130;-72
2023/04/30 08:41:56;;;;;;;15.33;8.47;;;16.90;99.90;;;;;;4993397;28;20041;-72
2023/04/30 08:44:26;;;;;;;14.15;8.50;;;17.10;99.90;;;;;;4979878;28;20292;-78
2023/04/30 08:46:57;;;;;;;14.77;9.00;;;17.00;99.90;;;;;;4962213;28;20077;-74
2023/04/30 08:49:24;;;;;;;;;;;17.00;99.90;;;;;;4978071;28;20035;-72
2023/04/30 08:51:53;;;;;;;11.00;7.53;;;17.10;99.90;;;;;;5028036;23;19984;-71
2023/04/30 08:54:25;;;;;;;14.35;8.05;;;17.20;99.90;;;;;;5013015;28;20046;-77
2023/04/30 08:56:52;;;;;;;8.00;6.35;;;17.50;99.90;;;;;;5019687;23;20078;-78
2023/04/30 08:59:26;;;;;;;9.27;6.10;;;17.60;99.90;;;;;;4980999;28;20035;-80
2023/04/30 09:02:14;;;;;;;12.63;6.95;;;17.90;99.90;;;;;;4978247;28;20081;-72
2023/04/30 09:04:42;;;;;;;16.17;7.03;;;18.10;99.90;;;;;;5012697;28;20122;-81
2023/04/30 09:07:13;;;;;;;11.38;6.50;;;18.10;99.90;;;;;;5002618;28;20085;-80
2023/04/30 09:09:59;;;;;;;8.15;6.03;;;18.20;99.90;;;;;;5018643;28;20054;-79
2023/04/30 09:12:27;;;;;;;10.52;7.18;;;18.50;99.90;;;;;;5005621;28;20050;-73
2023/04/30 09:15:03;;;;;;;9.35;6.80;;;18.40;99.90;;;;;;5008644;28;20046;-71
2023/04/30 09:17:35;;;;;;;10.18;6.30;;;18.40;99.90;;;;;;4989633;28;20050;-72
2023/04/30 09:20:16;;;;;;;12.82;7.68;;;18.40;99.90;;;;;;5023550;28;20053;-82
2023/04/30 09:23:08;;;;;;;13.65;7.28;;;18.40;99.90;;;;;;4977074;28;20062;-72
2023/04/30 09:25:43;;;;;;;8.77;5.88;;;18.50;99.90;;;;;;4981951;28;20141;-73
2023/04/30 09:28:12;;;;;;;10.77;6.65;;;18.60;99.90;;;;;;4996600;28;20050;-72
2023/04/30 09:30:42;;;;;;;12.63;6.93;;;18.70;99.90;;;;;;5000178;28;20038;-75
2023/04/30 09:33:09;;;;;;;10.77;6.97;;;18.60;99.90;;;;;;5003377;28;20065;-72
2023/04/30 09:35:40;;;;;;;12.13;7.88;;;18.70;99.90;;;;;;4996188;28;20061;-71
2023/04/30 09:38:30;;;;;;;10.20;6.97;;;18.60;99.90;;;;;;4985661;28;20089;-79
2023/04/30 09:40:59;;;;;;;11.50;6.75;;;18.50;99.90;;;;;;4991126;28;20624;-75
2023/04/30 09:43:28;;;;;;;8.57;6.22;;;18.80;99.90;;;;;;5002699;28;20093;-78
2023/04/30 09:45:57;;;;;;;10.95;6.25;;;19.10;99.90;;;;;;4994765;28;20066;-79
2023/04/30 09:48:33;;;;;;;11.95;6.90;;;19.20;99.90;;;;;;4997613;28;20047;-75
2023/04/30 09:51:03;;;;;;;10.52;6.22;;;19.40;99.90;;;;;;4989760;28;20085;-73
2023/04/30 09:53:31;;;;;;;9.23;5.25;;;19.40;99.90;;;;;;4997669;28;20037;-75
2023/04/30 09:56:04;;;;;;;9.80;4.40;;;19.50;96.60;;;;;;4994002;28;20051;-76
2023/04/30 09:58:37;;;;;;;8.30;4.50;;;19.70;96.40;;;;;;5009329;28;20110;-74
2023/04/30 10:01:07;;;;;;;7.18;4.68;;;19.80;95.90;;;;;;4998224;28;20054;-75
2023/04/30 10:03:35;;;;;;;8.70;3.53;;;20.00;94.00;;;;;;5003143;28;20046;-73
2023/04/30 10:06:04;;;;;;;9.00;4.10;;;20.30;93.70;;;;;;4990866;28;20053;-73
2023/04/30 10:08:56;;;;;;;8.93;3.78;;;20.50;91.80;;;;;;4986085;28;20074;-72
2023/04/30 10:11:29;;;;;;;5.75;3.80;;;20.70;90.40;;;;;;4974808;28;20046;-78
2023/04/30 10:14:02;;;;;;;7.05;3.67;;;20.60;90.20;;;;;;4995462;28;20050;-76
2023/04/30 10:16:38;;;;;;;9.95;4.07;;;20.70;90.40;;;;;;5029726;28;20053;-79
2023/04/30 10:19:29;;;;;;;7.85;4.65;;;20.40;91.90;;;;;;4999393;28;20046;-76
2023/04/30 10:22:00;;;;;;;8.50;4.45;;;20.40;92.60;;;;;;4982975;28;20055;-77
2023/04/30 10:24:30;;;;;;;8.20;4.85;;;20.70;92.90;;;;;;4969983;28;20050;-70
2023/04/30 10:27:09;;;;;;;8.00;4.30;;;21.00;92.30;;;;;;4955284;28;20138;-71
2023/04/30 10:29:37;;;;;;;14.15;4.72;;;21.50;93.20;;;;;;4975950;28;20046;-81
2023/04/30 10:32:15;;;;;;;6.75;4.22;;;21.70;91.40;;;;;;4989743;28;20043;-79
2023/04/30 10:34:54;;;;;;;7.95;4.95;;;21.70;91.10;;;;;;5013594;28;20496;-71
2023/04/30 10:37:39;;;;;;;6.53;4.40;;;22.00;92.60;;;;;;4981919;28;20456;-73
2023/04/30 10:40:18;;;;;;;9.32;4.97;;;22.00;92.30;;;;;;4996083;28;20050;-72
2023/04/30 10:42:54;;;;;;;8.75;5.03;;;21.80;91.00;;;;;;5003998;28;20130;-76
2023/04/30 10:45:45;;;;;;;9.45;5.35;;;21.90;90.70;;;;;;4991899;28;20055;-76
2023/04/30 10:48:34;;;;;;;7.13;4.30;;;21.60;88.40;;;;;;4969467;28;20059;-72
2023/04/30 10:51:03;;;;;;;9.30;4.90;;;21.10;89.40;;;;;;5049057;23;20053;-77
2023/04/30 10:53:39;;;;;;;7.68;4.07;;;21.10;89.10;;;;;;5044721;28;20060;-78
2023/04/30 10:56:10;;;;;;;7.00;4.20;;;21.40;89.70;;;;;;5032745;28;20077;-72
2023/04/30 10:58:44;;;;;;;8.85;4.95;;;21.50;89.60;;;;;;5029842;28;20112;-74
2023/04/30 11:01:16;;;;;;;6.65;4.13;;;21.80;87.20;;;;;;5059041;28;20069;-76
2023/04/30 11:04:05;;;;;;;7.68;4.30;;;21.70;86.30;;;;;;5048625;28;20453;-78
2023/04/30 11:07:00;;;;;;;8.45;4.90;;;21.50;88.90;;;;;;5049590;28;20097;-74
2023/04/30 11:09:36;;;;;;;11.15;5.47;;;21.00;90.40;;;;;;5060341;28;20051;-79
2023/04/30 11:12:13;;;;;;;7.18;4.43;;;20.80;90.40;;;;;;5069505;28;20053;-79
2023/04/30 11:14:45;;;;;;;13.52;5.93;;;20.40;91.80;;;;;;5049418;28;20505;-78
2023/04/30 11:17:21;;;;;;;9.65;6.13;;;20.20;93.30;;;;;;5049761;28;20048;-79
2023/04/30 11:19:51;;;;;;;8.75;4.93;;;19.80;94.60;;;;;;5032151;28;20080;-80
2023/04/30 11:22:22;;;;;;;11.57;4.95;;;19.50;96.00;;;;;;5053887;28;20049;-81
2023/04/30 11:25:03;;;;;;;7.68;4.80;;;19.20;96.80;;;;;;5055546;28;20057;-76
2023/04/30 11:27:35;;;;;;;9.35;6.15;;;18.70;96.90;;;;;;5031763;28;20059;-78
2023/04/30 11:30:10;;;;;;;8.25;5.60;;;18.20;98.50;;;;;;5029513;28;20080;-79
2023/04/30 11:32:40;;;;;;;9.25;5.22;;;17.80;99.90;;;;;;5036417;28;20057;-81
2023/04/30 11:35:10;;;;;;;7.10;4.65;;;17.70;99.90;;;;;;5046101;28;20080;-71
2023/04/30 11:37:43;;;;;;;12.43;4.38;;;17.70;99.90;;;;;;5024415;28;20046;-80
2023/04/30 11:40:15;;;;;;;6.60;3.72;;;17.30;99.90;;;;;;5033084;28;20057;-77
2023/04/30 11:42:58;;;;;;;6.18;3.63;;;17.60;99.90;;;;;;5028907;28;20077;-79
2023/04/30 11:45:27;;;;;;;5.30;3.50;;;17.90;98.90;;;;;;5032705;28;20117;-71
2023/04/30 11:47:55;;;;;;;6.18;3.40;;;17.90;99.00;;;;;;5012656;28;20050;-79
2023/04/30 11:50:28;;;;;;;6.47;4.20;;;18.30;96.30;;;;;;5032696;28;20084;-78
2023/04/30 11:52:57;;;;;;;6.47;4.07;;;19.00;96.60;;;;;;5027144;28;20412;-80
2023/04/30 11:55:28;;;;;;;6.55;4.30;;;19.70;96.30;;;;;;5025596;28;20053;-76
2023/04/30 11:57:58;;;;;;;7.40;4.75;;;20.40;96.20;;;;;;5048566;28;20045;-78
2023/04/30 12:00:29;;;;;;;7.35;4.65;;;20.80;95.90;;;;;;5044825;28;20053;-77
2023/04/30 12:02:58;;;;;;;7.50;4.40;;;21.00;96.10;;;;;;5024392;28;20026;-80
2023/04/30 12:05:27;;;;;;;7.28;5.00;;;21.40;97.20;;;;;;5018757;28;20057;-78
2023/04/30 12:07:59;;;;;;;7.15;4.22;;;21.70;97.90;;;;;;5048754;28;20103;-73
2023/04/30 12:10:27;;;;;;;9.02;4.72;;;21.90;93.40;;;;;;5043804;28;20046;-81
2023/04/30 12:12:56;;;;;;;6.05;3.88;;;22.40;91.70;;;;;;5050459;28;20054;-70
2023/04/30 12:15:25;;;;;;;7.33;5.10;;;22.60;88.50;;;;;;5031362;28;20461;-73
2023/04/30 12:17:58;;;;;;;7.82;5.43;;;22.10;93.40;;;;;;5018512;28;20125;-79
2023/04/30 12:20:30;;;;;;;8.63;5.35;;;21.70;95.10;;;;;;5038752;28;20039;-74
2023/04/30 12:23:02;;;;;;;8.18;4.72;;;21.00;96.70;;;;;;5071838;22;20061;-71
2023/04/30 12:25:43;;;;;;;7.07;4.90;;;19.80;97.80;;;;;;5028640;28;20081;-75
2023/04/30 12:28:12;;;;;;;11.60;5.43;;;19.80;98.90;;;;;;5022387;28;20049;-70
2023/04/30 12:30:42;;;;;;;9.67;5.60;;;19.90;98.70;;;;;;5031418;28;20053;-75
2023/04/30 12:33:11;;;;;;;6.50;4.80;;;20.10;98.60;;;;;;5026545;28;20287;-74
2023/04/30 12:35:43;;;;;;;6.15;4.82;;;20.30;98.20;;;;;;5028976;28;20362;-78
2023/04/30 12:38:16;;;;;;;6.45;4.50;;;20.50;95.90;;;;;;5030117;28;20060;-77
2023/04/30 12:40:50;;;;;;;6.10;4.10;;;20.50;94.50;;;;;;5031188;28;20058;-77
2023/04/30 12:43:18;;;;;;;7.57;4.40;;;20.50;95.20;;;;;;5009427;28;20034;-78
2023/04/30 12:45:45;;;;;;;7.20;4.45;;;20.90;95.20;;;;;;5018338;28;20050;-78
2023/04/30 12:48:14;;;;;;;9.15;4.18;;;20.50;94.00;;;;;;5020498;28;20064;-77
2023/04/30 12:50:46;;;;;;;8.35;5.65;;;20.90;93.30;;;;;;5027384;28;20050;-79
2023/04/30 12:53:13;;;;;;;7.63;5.40;;;20.70;94.90;;;;;;5025460;28;20125;-75
2023/04/30 12:55:41;;;;;;;11.32;5.07;;;21.10;95.10;;;;;;5029294;28;20057;-75
2023/04/30 12:58:19;;;;;;;8.75;4.43;;;21.60;92.80;;;;;;5023215;28;20080;-71
2023/04/30 13:00:52;;;;;;;8.27;4.25;;;22.10;89.20;;;;;;4991264;28;20049;-70
2023/04/30 13:03:25;;;;;;;7.07;4.47;;;23.00;85.70;;;;;;4997821;28;20038;-74